Time;durP1;ratioP1;P1;durP2;ratioP2;P2;SDS_P1;SDS_P2;PMS_P1;PMS_P2;Temp;Humidity;BMP_temperature;BMP_pressure;BME280_temperature;BME280_humidity;BME280_pressure;Samples;Min_cycle;Max_cycle;Signal;HPM_P1;HPM_P2
2023/07/03 00:01:32;;;;;;;;;;;18.60;76.60;;;;;;5066715;28;19913;-83
2023/07/03 00:03:57;;;;;;;;;;;18.60;76.60;;;;;;5071351;28;19976;-82
2023/07/03 00:06:23;;;;;;;;;;;18.50;76.70;;;;;;5067925;28;19917;-85
2023/07/03 00:08:49;;;;;;;;;;;18.50;76.90;;;;;;5056232;28;20028;-83
2023/07/03 00:11:14;;;;;;;;;;;18.50;77.00;;;;;;5054692;28;20299;-82
2023/07/03 00:13:40;;;;;;;;;;;18.50;77.20;;;;;;5055085;28;19954;-82
2023/07/03 00:16:06;;;;;;;;;;;18.50;77.40;;;;;;5056760;28;19909;-84
2023/07/03 00:18:31;;;;;;;;;;;18.40;77.50;;;;;;5059897;28;19908;-82
2023/07/03 00:20:57;;;;;;;;;;;18.40;77.80;;;;;;5053833;28;19909;-84
2023/07/03 00:23:24;;;;;;;;;;;18.40;78.20;;;;;;5054439;28;20484;-82
2023/07/03 00:25:50;;;;;;;;;;;18.40;78.10;;;;;;5054212;28;19913;-83
2023/07/03 00:28:16;;;;;;;;;;;18.50;78.20;;;;;;5054579;28;19917;-83
2023/07/03 00:30:42;;;;;;;;;;;18.50;78.20;;;;;;5056142;28;19908;-84
2023/07/03 00:33:07;;;;;;;;;;;18.50;78.20;;;;;;5055866;28;19915;-83
2023/07/03 00:35:33;;;;;;;;;;;18.50;78.20;;;;;;5056263;28;20440;-84
2023/07/03 00:37:59;;;;;;;;;;;18.50;78.40;;;;;;5058031;28;20011;-84
2023/07/03 00:40:24;;;;;;;;;;;18.50;78.40;;;;;;5054975;28;19915;-83
2023/07/03 00:42:52;;;;;;;;;;;18.50;78.50;;;;;;5041876;28;20010;-82
2023/07/03 00:45:18;;;;;;;;;;;18.50;78.70;;;;;;5046015;28;19993;-85
2023/07/03 00:47:44;;;;;;;;;;;18.50;78.90;;;;;;5055914;28;20460;-84
2023/07/03 00:50:10;;;;;;;;;;;18.50;79.10;;;;;;5047521;28;19913;-83
2023/07/03 00:52:37;;;;;;;;;;;18.50;79.10;;;;;;5059505;28;19935;-85
2023/07/03 00:55:04;;;;;;;;;;;18.50;79.00;;;;;;5060355;28;20271;-82
2023/07/03 00:57:29;;;;;;;;;;;18.50;79.40;;;;;;5051154;28;20451;-82
2023/07/03 00:59:56;;;;;;;;;;;18.50;79.50;;;;;;5066195;28;19944;-84
2023/07/03 01:02:25;;;;;;;;;;;18.60;79.70;;;;;;5070652;28;19916;-85
2023/07/03 01:04:54;;;;;;;;;;;18.60;79.70;;;;;;5057138;28;19908;-84
2023/07/03 01:07:25;;;;;;;;;;;18.70;79.70;;;;;;5070766;28;19909;-85
2023/07/03 01:10:01;;;;;;;;;;;18.70;79.80;;;;;;5050616;28;20011;-85
2023/07/03 01:12:28;;;;;;;;;;;18.70;79.80;;;;;;5048405;28;19992;-82
2023/07/03 01:14:57;;;;;;;;;;;18.70;79.90;;;;;;5045624;28;19913;-84
2023/07/03 01:17:25;;;;;;;;;;;18.70;80.10;;;;;;5053440;28;19909;-83
2023/07/03 01:19:51;;;;;;;;;;;18.70;80.30;;;;;;5052946;28;19908;-83
2023/07/03 01:22:20;;;;;;;;;;;18.70;80.50;;;;;;5053774;28;19908;-84
2023/07/03 01:24:52;;;;;;;;;;;18.60;80.80;;;;;;5052984;28;20374;-83
2023/07/03 01:27:20;;;;;;;;;;;18.60;80.90;;;;;;5052658;28;19916;-83
2023/07/03 01:29:49;;;;;;;;;;;18.50;81.20;;;;;;5048325;28;19920;-84
2023/07/03 01:32:15;;;;;;;;;;;18.50;81.60;;;;;;5050622;28;20658;-79
2023/07/03 01:34:43;;;;;;;;;;;18.50;82.10;;;;;;5051701;28;19944;-79
2023/07/03 01:37:10;;;;;;;;;;;18.50;82.20;;;;;;5052192;28;19924;-79
2023/07/03 01:39:35;;;;;;;;;;;18.50;82.50;;;;;;5051960;28;19909;-79
2023/07/03 01:42:01;;;;;;;;;;;18.60;82.90;;;;;;5051867;28;19963;-80
2023/07/03 01:44:27;;;;;;;;;;;18.60;83.10;;;;;;5052931;28;19948;-80
2023/07/03 01:46:53;;;;;;;;;;;18.60;83.30;;;;;;5056394;28;19936;-80
2023/07/03 01:49:19;;;;;;;;;;;18.70;83.50;;;;;;5051936;28;19925;-79
2023/07/03 01:51:58;;;;;;;;;;;18.70;83.80;;;;;;5041334;28;20389;-79
2023/07/03 01:54:31;;;;;;;;;;;18.80;84.10;;;;;;5052221;28;20030;-80
2023/07/03 01:56:58;;;;;;;;;;;18.80;84.10;;;;;;5053064;28;19916;-79
2023/07/03 01:59:25;;;;;;;;;;;18.90;84.10;;;;;;5059776;28;19913;-79
2023/07/03 02:01:59;;;;;;;;;;;18.90;84.20;;;;;;5052277;28;19927;-78
2023/07/03 02:04:31;;;;;;;;;;;19.10;84.70;;;;;;5056350;28;19909;-78
2023/07/03 02:06:58;;;;;;;;;;;19.20;84.60;;;;;;5053780;28;19909;-79
2023/07/03 02:09:24;;;;;;;;;;;19.30;84.90;;;;;;5054824;28;19924;-78
2023/07/03 02:11:51;;;;;;;;;;;19.40;86.10;;;;;;5066593;28;20374;-79
2023/07/03 02:14:17;;;;;;;;;;;19.40;86.50;;;;;;5054699;28;19932;-81
2023/07/03 02:16:46;;;;;;;;;;;19.50;86.60;;;;;;5057287;28;19909;-80
2023/07/03 02:19:14;;;;;;;;;;;19.50;86.80;;;;;;5055887;28;20022;-79
2023/07/03 02:21:39;;;;;;;;;;;19.60;87.20;;;;;;5055786;28;19919;-80
2023/07/03 02:24:05;;;;;;;;;;;19.60;87.80;;;;;;5056131;28;20011;-80
2023/07/03 02:26:31;;;;;;;;;;;19.60;87.90;;;;;;5071170;28;19909;-79
2023/07/03 02:28:57;;;;;;;;;;;19.70;88.50;;;;;;5055697;28;19924;-78
2023/07/03 02:31:22;;;;;;;;;;;19.60;89.00;;;;;;5056014;28;19976;-80
2023/07/03 02:33:48;;;;;;;;;;;19.60;89.20;;;;;;5056187;28;19985;-79
2023/07/03 02:36:14;;;;;;;;;;;19.60;89.50;;;;;;5056552;28;19913;-79
2023/07/03 02:38:40;;;;;;;;;;;19.70;89.70;;;;;;5059283;28;20307;-79
2023/07/03 02:41:06;;;;;;;;;;;19.70;89.90;;;;;;5059522;28;19908;-80
2023/07/03 02:43:31;;;;;;;;;;;19.70;89.90;;;;;;5062787;28;19932;-78
2023/07/03 02:46:01;;;;;;;;;;;19.70;89.70;;;;;;5057719;28;19909;-79
2023/07/03 02:48:27;;;;;;;;;;;19.70;90.10;;;;;;5055997;28;19916;-78
2023/07/03 02:50:53;;;;;;;;;;;19.70;90.00;;;;;;5049431;28;19995;-79
2023/07/03 02:53:18;;;;;;;;;;;19.70;90.00;;;;;;5057662;28;19936;-80
2023/07/03 02:55:44;;;;;;;;;;;19.80;90.00;;;;;;5057460;28;19959;-79
2023/07/03 02:58:10;;;;;;;;;;;19.90;90.00;;;;;;5056111;28;19909;-79
2023/07/03 03:00:35;;;;;;;;;;;20.00;89.80;;;;;;5053225;28;19916;-79
2023/07/03 03:03:01;;;;;;;;;;;20.10;89.80;;;;;;5051542;28;20312;-78
2023/07/03 03:05:26;;;;;;;;;;;20.20;89.60;;;;;;5050988;28;20259;-79
2023/07/03 03:07:52;;;;;;;;;;;20.20;89.30;;;;;;5047153;28;20385;-80
2023/07/03 03:10:18;;;;;;;;;;;20.20;89.20;;;;;;5059594;28;20366;-78
2023/07/03 03:12:43;;;;;;;;;;;20.10;89.70;;;;;;5064213;28;19913;-79
2023/07/03 03:15:09;;;;;;;;;;;20.00;90.00;;;;;;5071622;28;19952;-78
2023/07/03 03:17:35;;;;;;;;;;;19.90;90.30;;;;;;5055786;28;19909;-79
2023/07/03 03:20:00;;;;;;;;;;;19.90;90.40;;;;;;5052052;28;20008;-79
2023/07/03 03:22:26;;;;;;;;;;;19.80;90.50;;;;;;5056192;28;20317;-78
2023/07/03 03:24:52;;;;;;;;;;;19.80;90.60;;;;;;5042958;28;19909;-78
2023/07/03 03:27:18;;;;;;;;;;;19.80;90.80;;;;;;5068114;28;20327;-79
2023/07/03 03:29:44;;;;;;;;;;;19.80;91.10;;;;;;5074980;28;19917;-79
2023/07/03 03:32:10;;;;;;;;;;;19.90;91.20;;;;;;5056234;28;19920;-79
2023/07/03 03:34:35;;;;;;;;;;;20.00;91.30;;;;;;5056419;28;19909;-79
2023/07/03 03:37:02;;;;;;;;;;;20.20;91.10;;;;;;5048862;28;19908;-80
2023/07/03 03:39:28;;;;;;;;;;;20.10;91.00;;;;;;5047590;28;19952;-79
2023/07/03 03:41:53;;;;;;;;;;;20.00;91.30;;;;;;5056905;28;20354;-78
2023/07/03 03:44:19;;;;;;;;;;;20.10;91.40;;;;;;5055506;28;19939;-78
2023/07/03 03:46:45;;;;;;;;;;;20.20;91.40;;;;;;5055192;28;20002;-78
2023/07/03 03:49:11;;;;;;;;;;;20.30;91.30;;;;;;5052045;28;19924;-78
2023/07/03 03:51:37;;;;;;;;;;;20.50;91.20;;;;;;5047868;28;19909;-78
2023/07/03 03:54:03;;;;;;;;;;;20.50;91.10;;;;;;5054276;28;20378;-80
2023/07/03 03:56:29;;;;;;;;;;;20.60;91.00;;;;;;5054119;28;19991;-78
2023/07/03 03:58:54;;;;;;;;;;;20.50;91.00;;;;;;5054352;28;19912;-79
2023/07/03 04:01:20;;;;;;;;;;;20.50;91.10;;;;;;5047872;28;20048;-81
2023/07/03 04:03:46;;;;;;;;;;;20.50;91.10;;;;;;5056913;28;19971;-79
2023/07/03 04:06:13;;;;;;;;;;;20.60;91.10;;;;;;5057474;28;19928;-81
2023/07/03 04:08:39;;;;;;;;;;;20.50;91.10;;;;;;5054014;28;19929;-80
2023/07/03 04:11:04;;;;;;;;;;;20.60;91.20;;;;;;5044762;28;19916;-78
2023/07/03 04:13:30;;;;;;;;;;;20.70;91.10;;;;;;5044144;28;19966;-79
2023/07/03 04:15:57;;;;;;;;;;;20.80;91.00;;;;;;5053382;28;19909;-80
2023/07/03 04:18:23;;;;;;;;;;;21.10;90.90;;;;;;5053938;28;19909;-80
2023/07/03 04:20:49;;;;;;;;;;;21.40;90.40;;;;;;5054655;28;19919;-80
2023/07/03 04:23:16;;;;;;;;;;;21.50;89.90;;;;;;5054386;28;19909;-81
2023/07/03 04:25:45;;;;;;;;;;;21.50;89.70;;;;;;5068672;28;20011;-79
2023/07/03 04:28:11;;;;;;;;;;;21.40;89.00;;;;;;5060172;28;19927;-80
2023/07/03 04:30:37;;;;;;;;;;;21.30;89.30;;;;;;5056889;28;20295;-80
2023/07/03 04:33:03;;;;;;;;;;;21.40;89.70;;;;;;5053922;28;19932;-79
2023/07/03 04:35:28;;;;;;;;;;;21.50;89.30;;;;;;5053703;28;19916;-80
2023/07/03 04:37:54;;;;;;;;;;;21.60;89.20;;;;;;5053737;28;19913;-82
2023/07/03 04:40:20;;;;;;;;;;;21.60;88.60;;;;;;5058204;28;19909;-79
2023/07/03 04:42:45;;;;;;;;;;;21.70;88.60;;;;;;5045454;28;20401;-80
2023/07/03 04:45:13;;;;;;;;;;;21.60;88.30;;;;;;5067155;28;19913;-80
2023/07/03 04:47:39;;;;;;;;;;;21.50;88.30;;;;;;5052070;28;19916;-82
2023/07/03 04:50:07;;;;;;;;;;;21.50;88.20;;;;;;5052045;28;20004;-80
2023/07/03 04:52:36;;;;;;;;;;;21.40;88.30;;;;;;5053035;28;19909;-81
2023/07/03 04:55:02;;;;;;;;;;;21.30;88.40;;;;;;5051057;28;20350;-81
2023/07/03 04:57:28;;;;;;;;;;;21.30;88.40;;;;;;5052860;28;19913;-81
2023/07/03 04:59:55;;;;;;;;;;;21.30;88.40;;;;;;5052723;28;19909;-80
2023/07/03 05:02:21;;;;;;;;;;;21.20;88.40;;;;;;5039052;28;19916;-81
2023/07/03 05:04:49;;;;;;;;;;;21.10;88.40;;;;;;5052614;28;20052;-81
2023/07/03 05:07:17;;;;;;;;;;;21.00;88.50;;;;;;5056713;28;19972;-81
2023/07/03 05:09:42;;;;;;;;;;;21.00;88.70;;;;;;5057081;28;20284;-82
2023/07/03 05:12:08;;;;;;;;;;;21.00;88.80;;;;;;5052822;28;19923;-81
2023/07/03 05:14:35;;;;;;;;;;;21.00;88.60;;;;;;5052661;28;19913;-80
2023/07/03 05:17:02;;;;;;;;;;;20.90;88.60;;;;;;5052659;28;19908;-81
2023/07/03 05:19:28;;;;;;;;;;;20.90;88.70;;;;;;5053548;28;19909;-81
2023/07/03 05:21:53;;;;;;;;;;;20.70;88.90;;;;;;5051974;28;20683;-82
2023/07/03 05:24:19;;;;;;;;;;;20.80;89.50;;;;;;5040396;28;19921;-81
2023/07/03 05:26:45;;;;;;;;;;;20.80;89.20;;;;;;5046549;28;19909;-81
2023/07/03 05:29:11;;;;;;;;;;;20.90;88.80;;;;;;5044422;28;19921;-83
2023/07/03 05:31:36;;;;;;;;;;;20.90;88.20;;;;;;5050636;28;19909;-80
2023/07/03 05:34:02;;;;;;;;;;;21.20;87.90;;;;;;5046948;28;20330;-80
2023/07/03 05:36:28;;;;;;;;;;;21.40;87.30;;;;;;5052700;28;20278;-81
2023/07/03 05:38:53;;;;;;;;;;;21.80;86.70;;;;;;5052554;28;19913;-83
2023/07/03 05:41:19;;;;;;;;;;;22.40;87.00;;;;;;5053659;28;20396;-81
2023/07/03 05:43:45;;;;;;;;;;;23.40;84.30;;;;;;5053218;28;19912;-82
2023/07/03 05:46:10;;;;;;;;;;;24.40;80.50;;;;;;5046392;28;19909;-81
2023/07/03 05:48:36;;;;;;;;;;;25.30;76.70;;;;;;5053317;28;19917;-80
2023/07/03 05:51:02;;;;;;;;;;;25.90;72.10;;;;;;5051897;28;20485;-82
2023/07/03 05:53:27;;;;;;;;;;;26.80;72.00;;;;;;5048309;28;20291;-81
2023/07/03 05:55:54;;;;;;;;;;;28.40;67.50;;;;;;5062039;28;19932;-81
2023/07/03 05:58:40;;;;;;;;;;;28.60;67.30;;;;;;5048001;28;19909;-82
2023/07/03 06:01:09;;;;;;;;;;;29.60;65.80;;;;;;5044642;28;20382;-78
2023/07/03 06:03:35;;;;;;;;;;;29.80;60.00;;;;;;5045068;28;19909;-80
2023/07/03 06:06:34;;;;;;;;;;;29.30;59.00;;;;;;5052372;28;19955;-84
2023/07/03 06:08:59;;;;;;;;;;;29.10;58.30;;;;;;5032827;28;19921;-80
2023/07/03 06:11:25;;;;;;;;;;;29.30;57.80;;;;;;5044435;28;19967;-83
2023/07/03 06:13:51;;;;;;;;;;;29.50;57.40;;;;;;5054229;28;19915;-81
2023/07/03 06:16:16;;;;;;;;;;;30.20;55.80;;;;;;5048641;28;19999;-82
2023/07/03 06:18:42;;;;;;;;;;;30.90;53.50;;;;;;5052468;28;19913;-82
2023/07/03 06:21:08;;;;;;;;;;;;;;;;;;5052354;28;19909;-81
2023/07/03 06:23:34;;;;;;;;;;;;;;;;;;5050997;28;19995;-79
2023/07/03 06:25:59;;;;;;;;;;;31.40;52.00;;;;;;5053628;28;19920;-81
2023/07/03 06:28:25;;;;;;;;;;;32.60;50.10;;;;;;5052431;28;19916;-81
2023/07/03 06:30:51;;;;;;;;;;;33.90;49.60;;;;;;5052216;28;19909;-82
2023/07/03 06:33:16;;;;;;;;;;;35.50;48.40;;;;;;5052884;28;19909;-82
2023/07/03 06:35:42;;;;;;;;;;;36.70;46.30;;;;;;5054013;28;20394;-81
2023/07/03 06:38:08;;;;;;;;;;;37.50;43.90;;;;;;5056615;28;20374;-79
2023/07/03 06:40:33;;;;;;;;;;;36.80;42.00;;;;;;5055918;28;19920;-81
2023/07/03 06:42:59;;;;;;;;;;;34.40;41.70;;;;;;5041797;28;20126;-80
2023/07/03 06:45:25;;;;;;;;;;;33.10;44.10;;;;;;5055959;28;19909;-80
2023/07/03 06:47:51;;;;;;;;;;;33.50;44.90;;;;;;5054711;28;19909;-80
2023/07/03 06:50:17;;;;;;;;;;;34.70;43.60;;;;;;5073221;28;19909;-82
2023/07/03 06:52:45;;;;;;;;;;;35.50;42.80;;;;;;5055510;28;20011;-81
2023/07/03 06:55:10;;;;;;;;;;;36.00;42.00;;;;;;5055757;28;19917;-80
2023/07/03 06:57:36;;;;;;;;;;;37.20;41.50;;;;;;5055631;28;19916;-80
2023/07/03 07:00:05;;;;;;;;;;;;;;;;;;5055460;28;19948;-80
2023/07/03 07:02:31;;;;;;;;;;;37.90;40.50;;;;;;5056288;28;20380;-80
2023/07/03 07:04:56;;;;;;;;;;;39.00;40.10;;;;;;5058205;28;19964;-81
2023/07/03 07:07:22;;;;;;;;;;;;;;;;;;5068930;28;19952;-80
2023/07/03 07:09:48;;;;;;;;;;;;;;;;;;5065989;28;19968;-79
2023/07/03 07:12:14;;;;;;;;;;;;;;;;;;5051782;28;19966;-81
2023/07/03 07:14:40;;;;;;;;;;;42.00;36.20;;;;;;5052943;28;19909;-82
2023/07/03 07:17:06;;;;;;;;;;;41.80;36.50;;;;;;5050271;28;19913;-80
2023/07/03 07:19:31;;;;;;;;;;;41.80;35.40;;;;;;5054929;28;19970;-82
2023/07/03 07:21:57;;;;;;;;;;;;;;;;;;5045263;28;19915;-80
2023/07/03 07:24:24;;;;;;;;;;;38.60;36.20;;;;;;5055080;28;19909;-86
2023/07/03 07:27:00;;;;;;;;;;;;;;;;;;5058681;28;20033;-85
2023/07/03 07:29:26;;;;;;;;;;;37.00;37.10;;;;;;5059962;28;19962;-86
2023/07/03 07:31:58;;;;;;;;;;;;;;;;;;5060881;28;19909;-86
2023/07/03 07:34:25;;;;;;;;;;;35.30;38.80;;;;;;5057922;28;19913;-84
2023/07/03 07:36:54;;;;;;;;;;;34.80;39.20;;;;;;5042996;28;19908;-84
2023/07/03 07:39:20;;;;;;;;;;;33.50;40.10;;;;;;5059663;28;19958;-87
2023/07/03 07:41:46;;;;;;;;;;;32.40;40.10;;;;;;5055504;28;20288;-90
2023/07/03 07:44:11;;;;;;;;;;;32.20;40.20;;;;;;5050443;28;19909;-88
2023/07/03 07:46:40;;;;;;;;;;;33.90;40.40;;;;;;5055060;28;19920;-89
2023/07/03 07:49:09;;;;;;;;;;;34.40;39.30;;;;;;5055185;28;19930;-87
2023/07/03 07:51:39;;;;;;;;;;;34.30;38.60;;;;;;5065792;28;19981;-86
2023/07/03 07:54:08;;;;;;;;;;;34.30;37.80;;;;;;5065772;28;19920;-87
2023/07/03 07:56:37;;;;;;;;;;;35.40;37.30;;;;;;5069990;28;19934;-90
2023/07/03 07:59:06;;;;;;;;;;;35.90;36.00;;;;;;5064950;28;19915;-87
2023/07/03 08:01:32;;;;;;;;;;;36.60;35.30;;;;;;5072790;28;19916;-87
2023/07/03 08:03:58;;;;;;;;;;;37.70;35.60;;;;;;5076532;28;19909;-91
2023/07/03 08:06:27;;;;;;;;;;;39.10;33.80;;;;;;5062899;28;19909;-89
2023/07/03 08:08:56;;;;;;;;;;;39.30;33.40;;;;;;5041520;28;19928;-87
2023/07/03 08:11:22;;;;;;;;;;;39.00;33.70;;;;;;5061731;28;19908;-85
2023/07/03 08:13:48;;;;;;;;;;;39.40;33.00;;;;;;5072759;28;19909;-86
2023/07/03 08:16:15;;;;;;;;;;;38.30;32.90;;;;;;5068509;28;19932;-87
2023/07/03 08:18:41;;;;;;;;;;;37.80;34.20;;;;;;5060371;28;19910;-87
2023/07/03 08:21:09;;;;;;;;;;;38.50;33.70;;;;;;5062830;28;19924;-84
2023/07/03 08:23:37;;;;;;;;;;;39.60;33.30;;;;;;5068198;28;20008;-88
2023/07/03 08:26:03;;;;;;;;;;;40.80;32.50;;;;;;5056995;28;19963;-86
2023/07/03 08:28:31;;;;;;;;;;;40.60;31.70;;;;;;5068193;28;20326;-86
2023/07/03 08:31:09;;;;;;;;;;;40.70;31.90;;;;;;5072566;28;19897;-87
2023/07/03 08:33:44;;;;;;;;;;;40.70;31.40;;;;;;5072697;28;19935;-88
2023/07/03 08:36:10;;;;;;;;;;;40.40;32.00;;;;;;5068840;28;19936;-87
2023/07/03 08:38:41;;;;;;;;;;;41.30;31.40;;;;;;5067966;28;19909;-86
2023/07/03 08:41:09;;;;;;;;;;;42.00;31.60;;;;;;5061387;28;19955;-86
2023/07/03 08:43:46;;;;;;;;;;;42.50;30.90;;;;;;5060621;28;19916;-90
2023/07/03 08:46:12;;;;;;;;;;;;;;;;;;5062812;28;19908;-89
2023/07/03 08:49:03;;;;;;;;;;;41.90;30.70;;;;;;5065345;28;19923;-88
2023/07/03 08:51:50;;;;;;;;;;;42.10;31.90;;;;;;5057758;28;19917;-87
2023/07/03 08:54:28;;;;;;;;;;;42.50;31.10;;;;;;5042277;28;20279;-88
2023/07/03 08:56:55;;;;;;;;;;;42.20;31.00;;;;;;5076864;28;20004;-92
2023/07/03 08:59:22;;;;;;;;;;;41.00;30.90;;;;;;5092354;28;19913;-90
2023/07/03 09:01:50;;;;;;;;;;;40.30;31.40;;;;;;5068250;28;19909;-91
2023/07/03 09:04:16;;;;;;;;;;;39.30;31.60;;;;;;5066557;28;19916;-88
2023/07/03 09:06:42;;;;;;;;;;;;;;;;;;5051662;28;20285;-90
2023/07/03 09:09:11;;;;;;;;;;;;;;;;;;5064743;28;19921;-89
2023/07/03 09:11:44;;;;;;;;;;;;;;;;;;5064239;28;20305;-88
2023/07/03 09:14:11;;;;;;;;;;;;;;;;;;5067151;28;19940;-90
2023/07/03 09:16:44;;;;;;;;;;;;;;;;;;5066923;28;19935;-88
2023/07/03 09:19:16;;;;;;;;;;;38.40;32.50;;;;;;5070139;28;19897;-91
2023/07/03 09:21:44;;;;;;;;;;;42.10;30.80;;;;;;5067583;28;19932;-88
2023/07/03 09:24:39;;;;;;;;;;;41.20;29.90;;;;;;5049964;28;19967;-90
2023/07/03 09:27:19;;;;;;;;;;;40.70;30.70;;;;;;4996433;28;19948;-86
2023/07/03 09:29:45;;;;;;;;;;;41.40;30.10;;;;;;4995645;28;19918;-89
2023/07/03 09:32:12;;;;;;;;;;;41.20;30.30;;;;;;4995418;28;19909;-88
2023/07/03 09:35:01;;;;;;;;;;;40.80;30.30;;;;;;4995267;28;19964;-87
2023/07/03 09:37:27;;;;;;;;;;;39.60;30.60;;;;;;4976870;28;20437;-87
2023/07/03 09:39:53;;;;;;;;;;;39.10;31.60;;;;;;4976471;28;20323;-87
2023/07/03 09:42:20;;;;;;;;;;;39.40;31.80;;;;;;4989019;28;19918;-87
2023/07/03 09:44:46;;;;;;;;;;;38.50;31.00;;;;;;5002797;28;19929;-87
2023/07/03 09:47:24;;;;;;;;;;;37.40;32.80;;;;;;5002525;28;19910;-87
2023/07/03 09:49:50;;;;;;;;;;;37.30;33.40;;;;;;4999381;28;19976;-87
2023/07/03 09:52:16;;;;;;;;;;;37.50;33.50;;;;;;4991574;28;19929;-85
2023/07/03 09:54:43;;;;;;;;;;;36.10;32.90;;;;;;4999541;28;19910;-88
2023/07/03 09:57:28;;;;;;;;;;;35.60;34.00;;;;;;5000470;28;19914;-84
2023/07/03 09:59:54;;;;;;;;;;;34.30;34.60;;;;;;4996201;28;19920;-90
2023/07/03 10:02:22;;;;;;;;;;;34.00;35.90;;;;;;4987777;28;19910;-88
2023/07/03 10:04:50;;;;;;;;;;;32.50;36.20;;;;;;5049853;28;19915;-89
2023/07/03 10:07:17;;;;;;;;;;;32.30;37.40;;;;;;5030315;28;19909;-88
2023/07/03 10:09:44;;;;;;;;;;;33.30;37.80;;;;;;5055286;28;19963;-90
2023/07/03 10:12:28;;;;;;;;;;;34.50;36.50;;;;;;5058853;28;19960;-89
2023/07/03 10:14:53;;;;;;;;;;;35.60;35.40;;;;;;5037570;28;20021;-85
2023/07/03 10:17:30;;;;;;;;;;;36.80;34.40;;;;;;5061667;28;20070;-85
2023/07/03 10:19:58;;;;;;;;;;;37.00;34.80;;;;;;5065422;28;20337;-83
2023/07/03 10:22:25;;;;;;;;;;;37.70;34.10;;;;;;5065813;28;19913;-85
2023/07/03 10:24:52;;;;;;;;;;;38.30;32.60;;;;;;5061013;28;19909;-87
2023/07/03 10:27:19;;;;;;;;;;;38.40;32.40;;;;;;5062544;28;19909;-87
2023/07/03 10:29:49;;;;;;;;;;;38.00;32.40;;;;;;5059629;28;20417;-84
2023/07/03 10:32:17;;;;;;;;;;;37.60;32.40;;;;;;5061688;28;19908;-87
2023/07/03 10:34:59;;;;;;;;;;;36.80;32.50;;;;;;5061421;28;19931;-89
2023/07/03 10:37:25;;;;;;;;;;;34.80;33.00;;;;;;5049993;28;19916;-87
2023/07/03 10:39:54;;;;;;;;;;;32.60;34.90;;;;;;5045676;28;20443;-89
2023/07/03 10:42:27;;;;;;;;;;;31.40;36.20;;;;;;5040277;28;19920;-89
2023/07/03 10:44:56;;;;;;;;;;;30.00;37.70;;;;;;5063627;28;19915;-88
2023/07/03 10:47:30;;;;;;;;;;;29.30;38.80;;;;;;5076302;28;19944;-87
2023/07/03 10:50:00;;;;;;;;;;;28.90;40.00;;;;;;5071028;28;19924;-89
2023/07/03 10:52:34;;;;;;;;;;;28.50;40.10;;;;;;5073157;28;19924;-89
2023/07/03 10:55:01;;;;;;;;;;;28.10;40.40;;;;;;5077492;28;19919;-86
2023/07/03 10:57:40;;;;;;;;;;;27.90;40.40;;;;;;5073487;28;19913;-90
2023/07/03 11:00:10;;;;;;;;;;;27.60;40.70;;;;;;5075077;28;19936;-87
2023/07/03 11:02:44;;;;;;;;;;;27.30;41.30;;;;;;5066838;28;19935;-92
2023/07/03 11:05:14;;;;;;;;;;;27.30;41.70;;;;;;5052505;28;19917;-93
2023/07/03 11:07:54;;;;;;;;;;;27.00;40.90;;;;;;5058125;28;19995;-91
2023/07/03 11:10:39;;;;;;;;;;;26.60;41.50;;;;;;5067167;28;19925;-88
2023/07/03 11:13:10;;;;;;;;;;;26.30;42.10;;;;;;5032399;28;19913;-87
2023/07/03 11:15:44;;;;;;;;;;;26.20;42.20;;;;;;5040783;28;19913;-87
2023/07/03 11:18:16;;;;;;;;;;;26.30;42.40;;;;;;5044644;28;19913;-84
2023/07/03 11:21:08;;;;;;;;;;;26.20;42.20;;;;;;5044248;28;19909;-84
2023/07/03 11:23:53;;;;;;;;;;;26.00;42.50;;;;;;5055936;28;19917;-95
2023/07/03 11:26:42;;;;;;;;;;;25.80;43.10;;;;;;5059119;28;19913;-89
2023/07/03 11:29:10;;;;;;;;;;;26.00;43.80;;;;;;5039540;28;19917;-89
2023/07/03 11:31:41;;;;;;;;;;;26.10;44.10;;;;;;5039079;28;19953;-89
2023/07/03 11:34:08;;;;;;;;;;;26.00;44.00;;;;;;5034534;28;19897;-90
2023/07/03 11:36:38;;;;;;;;;;;26.10;44.20;;;;;;5056959;28;19893;-92
2023/07/03 11:39:19;;;;;;;;;;;26.30;44.70;;;;;;5034819;28;19909;-88
2023/07/03 11:41:50;;;;;;;;;;;26.30;44.90;;;;;;5015817;28;19913;-88
2023/07/03 11:44:33;;;;;;;;;;;26.10;44.80;;;;;;5036082;28;19918;-87
2023/07/03 11:47:00;;;;;;;;;;;26.10;45.00;;;;;;5035916;28;19913;-92
2023/07/03 11:49:33;;;;;;;;;;;26.10;45.00;;;;;;5035655;28;19928;-90
2023/07/03 11:52:03;;;;;;;;;;;26.00;44.80;;;;;;5028248;28;19939;-89
2023/07/03 11:54:30;;;;;;;;;;;26.00;44.80;;;;;;5040535;28;19913;-89
2023/07/03 11:57:01;;;;;;;;;;;26.00;44.90;;;;;;5044276;28;19909;-89
2023/07/03 11:59:29;;;;;;;;;;;25.90;44.70;;;;;;5025256;28;19956;-89
2023/07/03 12:02:11;;;;;;;;;;;26.00;44.60;;;;;;5055783;28;19935;-87
2023/07/03 12:04:43;;;;;;;;;;;25.80;44.20;;;;;;5026171;28;19913;-89
2023/07/03 12:07:17;;;;;;;;;;;25.60;44.20;;;;;;5031089;28;19917;-90
2023/07/03 12:09:50;;;;;;;;;;;25.60;44.40;;;;;;5047823;28;19928;-88
2023/07/03 12:12:21;;;;;;;;;;;25.60;44.50;;;;;;5052979;28;19991;-91
2023/07/03 12:15:01;;;;;;;;;;;25.70;44.60;;;;;;5071238;28;19913;-90
2023/07/03 12:17:36;;;;;;;;;;;25.80;44.50;;;;;;5053802;28;19918;-93
2023/07/03 12:20:07;;;;;;;;;;;25.90;44.60;;;;;;5056575;28;19936;-89
2023/07/03 12:22:43;;;;;;;;;;;25.70;44.50;;;;;;5052221;28;19910;-88
2023/07/03 12:25:12;;;;;;;;;;;25.70;44.70;;;;;;5050482;28;19908;-89
2023/07/03 12:27:42;;;;;;;;;;;25.60;44.50;;;;;;5077675;28;19897;-87
2023/07/03 12:30:55;;;;;;;;;;;25.60;44.20;;;;;;5044994;28;19916;-88
2023/07/03 12:33:34;;;;;;;;;;;;;;;;;;5044622;28;19936;-89
2023/07/03 12:36:24;;;;;;;;;;;25.40;44.00;;;;;;5074361;28;19919;-90
2023/07/03 12:38:50;;;;;;;;;;;25.20;44.30;;;;;;5064890;28;19913;-87
2023/07/03 12:41:36;;;;;;;;;;;25.40;44.40;;;;;;5063471;28;19909;-89
2023/07/03 12:44:10;;;;;;;;;;;25.50;44.50;;;;;;5042033;28;20401;-89
2023/07/03 12:46:48;;;;;;;;;;;;;;;;;;;;;
2023/07/03 12:52:44;;;;;;;;;;;25.40;44.10;;;;;;5031550;28;19972;-93
2023/07/03 12:55:22;;;;;;;;;;;25.40;44.30;;;;;;5047266;28;19909;-90
2023/07/03 12:57:53;;;;;;;;;;;25.40;44.70;;;;;;5036432;28;19913;-89
2023/07/03 13:00:31;;;;;;;;;;;25.40;45.10;;;;;;5054083;28;19912;-92
2023/07/03 13:03:22;;;;;;;;;;;25.40;45.10;;;;;;5074821;28;19923;-88
2023/07/03 13:05:47;;;;;;;;;;;25.50;44.80;;;;;;5050107;28;19939;-83
2023/07/03 13:08:15;;;;;;;;;;;25.60;44.70;;;;;;5051534;28;19979;-85
2023/07/03 13:10:56;;;;;;;;;;;25.60;44.50;;;;;;5058842;28;19917;-88
2023/07/03 13:13:22;;;;;;;;;;;25.60;44.40;;;;;;5048927;28;19915;-90
2023/07/03 13:15:48;;;;;;;;;;;25.60;43.90;;;;;;5059472;28;20008;-86
2023/07/03 13:18:14;;;;;;;;;;;25.70;44.20;;;;;;5059405;28;19912;-86
2023/07/03 13:21:09;;;;;;;;;;;25.80;43.80;;;;;;5074784;28;19909;-84
2023/07/03 13:23:36;;;;;;;;;;;25.80;44.10;;;;;;5059728;28;19954;-87
2023/07/03 13:26:07;;;;;;;;;;;25.70;43.90;;;;;;5089906;28;19969;-91
2023/07/03 13:28:38;;;;;;;;;;;25.50;44.10;;;;;;5059570;28;19921;-86
2023/07/03 13:31:18;;;;;;;;;;;25.40;44.40;;;;;;5072650;28;19920;-86
2023/07/03 13:33:58;;;;;;;;;;;25.40;44.50;;;;;;5084729;28;19995;-89
2023/07/03 13:36:29;;;;;;;;;;;25.60;44.90;;;;;;5074943;28;19897;-87
2023/07/03 13:39:09;;;;;;;;;;;25.70;44.70;;;;;;5086597;28;19919;-84
2023/07/03 13:41:36;;;;;;;;;;;26.20;45.20;;;;;;5088090;28;19932;-94
2023/07/03 13:44:22;;;;;;;;;;;27.40;43.90;;;;;;5092133;28;19913;-91
2023/07/03 13:46:49;;;;;;;;;;;28.70;42.40;;;;;;5063756;28;19912;-86
2023/07/03 13:49:22;;;;;;;;;;;29.30;41.70;;;;;;5098269;28;19922;-90
2023/07/03 13:51:48;;;;;;;;;;;29.60;40.60;;;;;;5094588;28;19931;-87
2023/07/03 13:54:15;;;;;;;;;;;29.70;40.30;;;;;;5075782;28;19990;-91
2023/07/03 13:56:41;;;;;;;;;;;30.00;40.60;;;;;;5043485;28;19909;-92
2023/07/03 13:59:09;;;;;;;;;;;30.30;40.30;;;;;;5047995;28;19916;-90
2023/07/03 14:01:37;;;;;;;;;;;30.70;40.20;;;;;;5050841;28;20037;-91
2023/07/03 14:04:05;;;;;;;;;;;30.60;38.60;;;;;;5033275;28;20068;-92
2023/07/03 14:06:32;;;;;;;;;;;30.50;39.00;;;;;;5046934;28;19894;-82
2023/07/03 14:08:57;;;;;;;;;;;30.50;39.30;;;;;;5040117;28;19921;-83
2023/07/03 14:11:23;;;;;;;;;;;31.00;39.40;;;;;;5033056;28;19924;-82
2023/07/03 14:13:49;;;;;;;;;;;31.60;39.20;;;;;;5020121;28;19913;-80
2023/07/03 14:16:15;;;;;;;;;;;32.00;38.70;;;;;;5042299;28;19909;-79
2023/07/03 14:18:41;;;;;;;;;;;32.00;38.00;;;;;;5033329;28;19915;-82
2023/07/03 14:21:08;;;;;;;;;;;31.00;37.70;;;;;;5025313;28;20325;-80
2023/07/03 14:23:34;;;;;;;;;;;30.60;38.10;;;;;;5031753;28;19936;-80
2023/07/03 14:26:04;;;;;;;;;;;30.60;38.30;;;;;;5019412;28;19909;-78
2023/07/03 14:28:30;;;;;;;;;;;30.80;38.40;;;;;;5044969;28;19925;-80
2023/07/03 14:30:56;;;;;;;;;;;30.90;38.00;;;;;;5042755;28;19913;-81
2023/07/03 14:33:21;;;;;;;;;;;30.30;37.50;;;;;;5030321;28;19913;-86
2023/07/03 14:35:48;;;;;;;;;;;30.10;37.90;;;;;;5033804;28;19916;-88
2023/07/03 14:38:17;;;;;;;;;;;29.40;37.80;;;;;;5043815;28;19914;-90